createdAt,value
2019-05-11T00:01:53.659Z,10.50
2019-05-11T00:06:59.076Z,10.40
2019-05-11T00:12:04.622Z,10.40
2019-05-11T00:17:09.960Z,10.50
2019-05-11T00:22:15.509Z,10.50
2019-05-11T00:27:20.827Z,10.40
2019-05-11T00:32:26.249Z,10.40
2019-05-11T00:37:31.583Z,10.30
2019-05-11T00:42:36.930Z,10.20
2019-05-11T00:47:42.276Z,10.30
2019-05-11T00:52:47.617Z,10.30
2019-05-11T00:57:52.981Z,10.20
2019-05-11T01:02:58.344Z,10.20
2019-05-11T01:08:04.776Z,10.20
2019-05-11T01:13:10.156Z,10.30
2019-05-11T01:18:15.532Z,10.30
2019-05-11T01:23:20.897Z,10.20
2019-05-11T01:28:26.326Z,10.10
2019-05-11T01:33:31.665Z,10.10
2019-05-11T01:38:37.012Z,10.10
2019-05-11T01:43:42.346Z,10.00
2019-05-11T01:48:47.695Z,9.90
2019-05-11T01:53:53.998Z,9.80
2019-05-11T01:58:59.371Z,9.80
2019-05-11T02:04:04.727Z,9.80
2019-05-11T02:09:10.045Z,9.90
2019-05-11T02:14:15.353Z,9.90
2019-05-11T02:19:20.663Z,9.90
2019-05-11T02:24:26.007Z,9.90
2019-05-11T02:29:31.315Z,9.90
2019-05-11T02:34:36.655Z,9.90
2019-05-11T02:39:42.068Z,9.90
2019-05-11T02:44:47.396Z,9.90
2019-05-11T02:49:52.721Z,9.90
2019-05-11T02:55:00.106Z,9.90
2019-05-11T03:00:07.645Z,9.80
2019-05-11T03:05:12.960Z,9.80
2019-05-11T03:10:19.050Z,9.70
2019-05-11T03:15:24.363Z,9.60
2019-05-11T03:20:29.775Z,9.60
2019-05-11T03:25:35.088Z,9.70
2019-05-11T03:30:40.395Z,9.80
2019-05-11T03:35:45.705Z,9.80
2019-05-11T03:40:50.996Z,9.80
2019-05-11T03:45:56.308Z,9.80
2019-05-11T03:51:01.621Z,9.80
2019-05-11T03:56:06.939Z,9.80
2019-05-11T04:01:12.248Z,9.70
2019-05-11T04:06:17.540Z,9.70
2019-05-11T04:11:22.872Z,9.70
2019-05-11T04:16:28.187Z,9.70
2019-05-11T04:21:33.501Z,9.70
2019-05-11T04:26:38.822Z,9.70
2019-05-11T04:31:44.149Z,9.70
2019-05-11T04:36:49.476Z,9.80
2019-05-11T04:41:54.804Z,9.90
2019-05-11T04:47:00.136Z,9.90
2019-05-11T04:52:05.448Z,9.90
2019-05-11T04:57:10.759Z,9.90
2019-05-11T05:02:16.076Z,10.00
2019-05-11T05:07:21.407Z,10.10
2019-05-11T05:12:26.723Z,10.10
2019-05-11T05:17:32.058Z,10.20
2019-05-11T05:22:38.487Z,10.20
2019-05-11T05:27:43.776Z,10.20
2019-05-11T05:32:49.102Z,10.20
2019-05-11T05:37:54.415Z,10.20
2019-05-11T05:43:00.675Z,10.30
2019-05-11T05:48:06.717Z,10.30
2019-05-11T05:53:12.029Z,10.30
2019-05-11T05:58:17.687Z,10.30
2019-05-11T06:03:23.352Z,10.20
2019-05-11T06:08:28.855Z,10.30
2019-05-11T06:13:44.436Z,10.20
2019-05-11T06:18:41.605Z,10.30
2019-05-11T06:23:46.992Z,10.50
2019-05-11T06:28:52.765Z,10.60
2019-05-11T06:33:58.385Z,10.60
2019-05-11T06:39:07.730Z,10.70
2019-05-11T06:44:13.147Z,10.70
2019-05-11T06:49:18.464Z,10.80
2019-05-11T06:54:23.949Z,10.90
2019-05-11T06:59:29.400Z,11.10
2019-05-11T07:04:34.895Z,11.30
2019-05-11T07:09:41.787Z,11.40
2019-05-11T07:14:47.143Z,11.50
2019-05-11T07:19:52.543Z,12.00
2019-05-11T07:24:57.894Z,12.80
2019-05-11T07:30:03.365Z,13.20
2019-05-11T07:35:10.045Z,13.60
2019-05-11T07:40:15.590Z,13.90
2019-05-11T07:45:21.323Z,13.90
2019-05-11T07:50:35.331Z,13.80
2019-05-11T07:55:38.570Z,13.30
2019-05-11T08:00:58.131Z,13.10
2019-05-11T08:06:03.730Z,13.10
2019-05-11T08:11:09.153Z,13.40
2019-05-11T08:16:14.511Z,13.80
2019-05-11T08:21:19.840Z,14.20
2019-05-11T08:26:25.156Z,14.30
2019-05-11T08:31:30.500Z,14.60
2019-05-11T08:36:37.802Z,15.00
2019-05-11T08:41:42.957Z,14.70
2019-05-11T08:46:48.335Z,14.70
2019-05-11T08:51:53.694Z,14.90
2019-05-11T08:56:58.994Z,15.30
2019-05-11T09:02:07.946Z,15.60
2019-05-11T09:07:13.110Z,15.70
2019-05-11T09:12:18.751Z,16.10
2019-05-11T09:17:24.123Z,16.50
2019-05-11T09:22:29.668Z,16.20
2019-05-11T09:27:35.069Z,15.90
2019-05-11T09:32:40.773Z,15.90
2019-05-11T09:37:48.234Z,16.20
2019-05-11T09:42:53.016Z,16.30
2019-05-11T09:47:58.524Z,16.40
2019-05-11T09:53:03.892Z,16.50
2019-05-11T09:58:09.164Z,17.00
2019-05-11T10:03:14.488Z,17.40
2019-05-11T10:08:19.819Z,17.00
2019-05-11T10:13:27.688Z,17.60
2019-05-11T10:18:32.591Z,17.20
2019-05-11T10:23:39.393Z,18.40
2019-05-11T10:28:47.930Z,18.10
2019-05-11T10:33:52.753Z,18.30
2019-05-11T10:38:58.808Z,17.70
2019-05-11T10:44:05.334Z,17.50
2019-05-11T10:49:10.756Z,17.40
2019-05-11T10:54:18.722Z,17.00
2019-05-11T10:59:23.991Z,16.80
2019-05-11T11:04:29.271Z,16.60
2019-05-11T11:09:34.615Z,16.30
2019-05-11T11:14:40.273Z,16.30
2019-05-11T11:19:48.632Z,16.30
2019-05-11T11:24:53.762Z,16.20
2019-05-11T11:29:59.191Z,16.20
2019-05-11T11:35:04.680Z,16.40
2019-05-11T11:40:10.920Z,16.30
2019-05-11T11:45:18.312Z,16.20
2019-05-11T11:50:24.037Z,16.10
2019-05-11T11:55:29.390Z,16.20
2019-05-11T12:00:34.711Z,16.10
2019-05-11T12:05:40.090Z,16.00
2019-05-11T12:10:45.877Z,15.60
2019-05-11T12:15:52.078Z,15.70
2019-05-11T12:20:58.577Z,15.90
2019-05-11T12:26:05.155Z,15.90
2019-05-11T12:31:10.558Z,16.00
2019-05-11T12:36:18.464Z,16.00
2019-05-11T12:41:22.847Z,15.70
2019-05-11T12:46:28.279Z,15.70
2019-05-11T12:51:33.664Z,15.60
2019-05-11T12:56:38.949Z,15.60
2019-05-11T13:01:44.247Z,15.60
2019-05-11T13:06:49.719Z,15.90
2019-05-11T13:11:55.151Z,16.00
2019-05-11T13:17:00.565Z,16.00
2019-05-11T13:22:07.739Z,15.80
2019-05-11T13:27:12.855Z,15.90
2019-05-11T13:32:18.781Z,15.80
2019-05-11T13:37:24.251Z,15.90
2019-05-11T13:42:29.531Z,16.00
2019-05-11T13:47:48.519Z,15.90
2019-05-11T13:52:41.740Z,15.70
2019-05-11T13:57:48.584Z,15.90
2019-05-11T14:02:55.853Z,17.70
2019-05-11T14:08:01.389Z,16.60
2019-05-11T14:13:08.793Z,16.00
2019-05-11T14:18:13.920Z,16.10
2019-05-11T14:23:19.471Z,16.40
2019-05-11T14:28:27.908Z,16.40
2019-05-11T14:33:32.755Z,16.30
2019-05-11T14:38:38.259Z,16.10
2019-05-11T14:43:43.737Z,15.80
2019-05-11T14:48:49.254Z,15.70
2019-05-11T14:53:56.784Z,15.50
2019-05-11T14:59:01.999Z,15.10
2019-05-11T15:04:09.085Z,14.90
2019-05-11T15:09:15.135Z,14.60
2019-05-11T15:14:22.235Z,14.20
2019-05-11T15:19:27.998Z,14.30
2019-05-11T15:24:33.276Z,14.30
2019-05-11T15:29:38.580Z,14.10
2019-05-11T15:34:43.884Z,14.00
2019-05-11T15:39:49.286Z,13.90
2019-05-11T15:44:55.656Z,13.90
2019-05-11T15:50:01.443Z,14.00
2019-05-11T15:55:08.211Z,14.00
2019-05-11T16:00:15.465Z,13.90
2019-05-11T16:05:21.056Z,13.90
2019-05-11T16:10:27.847Z,13.90
2019-05-11T16:15:35.510Z,13.80
2019-05-11T16:20:40.164Z,13.70
2019-05-11T16:25:45.495Z,13.70
2019-05-11T16:30:51.451Z,13.40
2019-05-11T16:36:00.820Z,10.50
2019-05-11T16:41:05.334Z,12.60
2019-05-11T16:46:11.929Z,12.10
2019-05-11T16:51:17.763Z,11.70
2019-05-11T16:56:23.319Z,11.60
2019-05-11T17:01:28.745Z,11.60
2019-05-11T17:06:34.011Z,11.60
2019-05-11T17:11:39.256Z,11.60
2019-05-11T17:16:44.645Z,11.70
2019-05-11T17:21:50.051Z,11.70
2019-05-11T17:26:55.423Z,11.80
2019-05-11T17:32:00.983Z,11.70
2019-05-11T17:37:08.868Z,11.70
2019-05-11T17:42:13.720Z,11.80
2019-05-11T17:47:19.027Z,11.70
2019-05-11T17:52:24.372Z,11.70
2019-05-11T17:57:29.735Z,11.40
2019-05-11T18:02:35.070Z,11.30
2019-05-11T18:07:40.311Z,11.10
2019-05-11T18:12:48.314Z,10.80
2019-05-11T18:17:52.624Z,10.70
2019-05-11T18:22:57.932Z,10.60
2019-05-11T18:28:04.339Z,10.50
2019-05-11T18:33:09.713Z,10.30
2019-05-11T18:38:17.250Z,10.40
2019-05-11T18:43:22.404Z,10.30
2019-05-11T18:48:29.006Z,10.30
2019-05-11T18:53:34.707Z,10.20
2019-05-11T18:58:40.685Z,10.20
2019-05-11T19:03:47.904Z,10.10
2019-05-11T19:08:53.243Z,10.10
2019-05-11T19:13:58.911Z,10.00
2019-05-11T19:19:04.347Z,9.90
2019-05-11T19:24:09.747Z,9.90
2019-05-11T19:29:17.764Z,9.90
2019-05-11T19:34:22.288Z,9.90
2019-05-11T19:39:28.011Z,9.80
2019-05-11T19:44:33.431Z,9.80
2019-05-11T19:49:38.720Z,9.80
2019-05-11T19:54:44.972Z,9.90
2019-05-11T19:59:50.279Z,10.00
2019-05-11T20:04:55.635Z,10.10
2019-05-11T20:10:00.931Z,10.10
2019-05-11T20:15:08.312Z,10.20
2019-05-11T20:20:13.951Z,10.20
2019-05-11T20:25:19.508Z,10.20
2019-05-11T20:30:24.811Z,10.10
2019-05-11T20:35:32.392Z,10.10
2019-05-11T20:40:37.838Z,10.20
2019-05-11T20:45:43.211Z,10.10
2019-05-11T20:50:48.554Z,10.10
2019-05-11T20:55:54.562Z,10.10
2019-05-11T21:00:59.975Z,10.20
2019-05-11T21:06:07.917Z,10.20
2019-05-11T21:11:12.388Z,10.20
2019-05-11T21:16:17.948Z,10.10
2019-05-11T21:21:23.259Z,10.10
2019-05-11T21:26:28.659Z,10.10
2019-05-11T21:31:34.751Z,10.10
2019-05-11T21:36:41.203Z,10.20
2019-05-11T21:41:47.787Z,10.10
2019-05-11T21:46:53.814Z,10.10
2019-05-11T21:52:09.173Z,10.10
2019-05-11T21:57:15.730Z,10.10
2019-05-11T22:02:23.519Z,10.10
2019-05-11T22:07:30.490Z,10.10
2019-05-11T22:12:38.672Z,10.00
2019-05-11T22:17:43.894Z,9.90
2019-05-11T22:22:49.428Z,9.80
2019-05-11T22:27:57.511Z,9.90
2019-05-11T22:33:02.598Z,9.90
2019-05-11T22:38:08.575Z,9.80
2019-05-11T22:43:15.061Z,9.70
2019-05-11T22:48:20.495Z,9.70
2019-05-11T22:53:42.788Z,9.60
2019-05-11T22:58:33.597Z,9.60
2019-05-11T23:03:39.288Z,9.60
2019-05-11T23:08:44.938Z,9.60
2019-05-11T23:13:50.426Z,9.50
2019-05-11T23:18:56.304Z,9.40
2019-05-11T23:24:01.592Z,9.40
2019-05-11T23:29:08.142Z,9.50
2019-05-11T23:34:13.916Z,9.50
2019-05-11T23:39:19.932Z,9.50
2019-05-11T23:44:25.899Z,9.50
2019-05-11T23:49:31.206Z,9.50
2019-05-11T23:54:38.295Z,9.50
2019-05-11T23:59:43.908Z,9.50
